Terminal Aerodrome Forecast
Issued by NWS Wilmington, NC

Home | Current Version | Previous Version | Text Only | Print | Product List | Glossary On
Versions: 1 2 3 4 5 6 7 8 9 10 11 12 13 14 15 16 17
000
FTUS42 KILM 071122
TAFILM
TAF
KILM 071122Z 0712/0812 33011KT P6SM OVC006
     FM071400 31005KT P6SM BKN015
     FM071500 34007KT P6SM SCT020
     FM071800 01005KT P6SM SKC
     FM080300 00000KT P6SM SCT025 OVC100=

USA.gov is the U.S. government's official web portal to all federal, state and local government web resources and services.